sensor_id;sensor_type;location;lat;lon;timestamp;temperature;humidity
70368;DHT22;57789;53.868;10.728;2023-12-07T00:01:54;0.80;99.90
70368;DHT22;57789;53.868;10.728;2023-12-07T00:04:20;0.80;99.90
70368;DHT22;57789;53.868;10.728;2023-12-07T00:06:46;0.80;99.90
70368;DHT22;57789;53.868;10.728;2023-12-07T00:09:12;0.80;99.90
70368;DHT22;57789;53.868;10.728;2023-12-07T00:11:37;0.80;99.90
70368;DHT22;57789;53.868;10.728;2023-12-07T00:14:03;0.80;99.90
70368;DHT22;57789;53.868;10.728;2023-12-07T00:16:29;0.80;99.90
70368;DHT22;57789;53.868;10.728;2023-12-07T00:18:56;0.70;99.90
70368;DHT22;57789;53.868;10.728;2023-12-07T00:21:22;0.70;99.90
70368;DHT22;57789;53.868;10.728;2023-12-07T00:23:48;0.70;99.90
70368;DHT22;57789;53.868;10.728;2023-12-07T00:26:14;0.70;99.90
70368;DHT22;57789;53.868;10.728;2023-12-07T00:28:40;0.70;99.90
70368;DHT22;57789;53.868;10.728;2023-12-07T00:31:05;0.70;99.90
70368;DHT22;57789;53.868;10.728;2023-12-07T00:33:31;0.60;99.90
70368;DHT22;57789;53.868;10.728;2023-12-07T00:35:57;0.60;99.90
70368;DHT22;57789;53.868;10.728;2023-12-07T00:38:23;0.50;99.90
70368;DHT22;57789;53.868;10.728;2023-12-07T00:40:49;0.60;99.90
70368;DHT22;57789;53.868;10.728;2023-12-07T00:43:14;0.60;99.90
70368;DHT22;57789;53.868;10.728;2023-12-07T00:45:40;0.50;99.90
70368;DHT22;57789;53.868;10.728;2023-12-07T00:48:06;0.50;99.90
70368;DHT22;57789;53.868;10.728;2023-12-07T00:50:32;0.60;99.90
70368;DHT22;57789;53.868;10.728;2023-12-07T00:52:58;0.50;99.90
70368;DHT22;57789;53.868;10.728;2023-12-07T00:55:24;0.50;99.90
70368;DHT22;57789;53.868;10.728;2023-12-07T00:57:49;0.60;99.90
70368;DHT22;57789;53.868;10.728;2023-12-07T01:00:15;0.70;99.90
70368;DHT22;57789;53.868;10.728;2023-12-07T01:02:41;0.70;99.90
70368;DHT22;57789;53.868;10.728;2023-12-07T01:05:07;0.70;99.90
70368;DHT22;57789;53.868;10.728;2023-12-07T01:07:34;0.80;99.90
70368;DHT22;57789;53.868;10.728;2023-12-07T01:10:00;0.70;99.90
70368;DHT22;57789;53.868;10.728;2023-12-07T01:12:26;0.70;99.90
70368;DHT22;57789;53.868;10.728;2023-12-07T01:14:51;0.80;99.90
70368;DHT22;57789;53.868;10.728;2023-12-07T01:17:17;0.70;99.90
70368;DHT22;57789;53.868;10.728;2023-12-07T01:19:43;0.60;99.90
70368;DHT22;57789;53.868;10.728;2023-12-07T01:22:09;0.60;99.90
70368;DHT22;57789;53.868;10.728;2023-12-07T01:24:35;0.60;99.90
70368;DHT22;57789;53.868;10.728;2023-12-07T01:27:00;0.60;99.90
70368;DHT22;57789;53.868;10.728;2023-12-07T01:29:26;0.60;99.90
70368;DHT22;57789;53.868;10.728;2023-12-07T01:31:52;0.60;99.90
70368;DHT22;57789;53.868;10.728;2023-12-07T01:34:20;0.60;99.90
70368;DHT22;57789;53.868;10.728;2023-12-07T01:36:45;0.60;99.90
70368;DHT22;57789;53.868;10.728;2023-12-07T01:39:11;0.70;99.90
70368;DHT22;57789;53.868;10.728;2023-12-07T01:41:39;0.70;99.90
70368;DHT22;57789;53.868;10.728;2023-12-07T01:44:05;0.70;99.90
70368;DHT22;57789;53.868;10.728;2023-12-07T01:46:32;0.60;99.90
70368;DHT22;57789;53.868;10.728;2023-12-07T01:48:59;0.50;99.90
70368;DHT22;57789;53.868;10.728;2023-12-07T01:51:25;0.50;99.90
70368;DHT22;57789;53.868;10.728;2023-12-07T01:53:52;0.50;99.90
70368;DHT22;57789;53.868;10.728;2023-12-07T01:56:18;0.50;99.90
70368;DHT22;57789;53.868;10.728;2023-12-07T01:58:44;0.60;99.90
70368;DHT22;57789;53.868;10.728;2023-12-07T02:01:12;0.60;99.90
70368;DHT22;57789;53.868;10.728;2023-12-07T02:03:40;0.60;99.90
70368;DHT22;57789;53.868;10.728;2023-12-07T02:06:06;0.60;99.90
70368;DHT22;57789;53.868;10.728;2023-12-07T02:08:34;0.70;99.90
70368;DHT22;57789;53.868;10.728;2023-12-07T02:11:00;0.70;99.90
70368;DHT22;57789;53.868;10.728;2023-12-07T02:13:26;0.60;99.90
70368;DHT22;57789;53.868;10.728;2023-12-07T02:15:53;0.60;99.90
70368;DHT22;57789;53.868;10.728;2023-12-07T02:18:34;0.70;99.90
70368;DHT22;57789;53.868;10.728;2023-12-07T02:21:11;0.60;99.90
70368;DHT22;57789;53.868;10.728;2023-12-07T02:23:41;0.70;99.90
70368;DHT22;57789;53.868;10.728;2023-12-07T02:26:22;0.70;99.90
70368;DHT22;57789;53.868;10.728;2023-12-07T02:28:55;0.70;99.90
70368;DHT22;57789;53.868;10.728;2023-12-07T02:31:21;0.70;99.90
70368;DHT22;57789;53.868;10.728;2023-12-07T02:33:46;0.80;99.90
70368;DHT22;57789;53.868;10.728;2023-12-07T02:36:15;0.90;99.90
70368;DHT22;57789;53.868;10.728;2023-12-07T02:38:43;0.80;99.90
70368;DHT22;57789;53.868;10.728;2023-12-07T02:41:10;0.80;99.90
70368;DHT22;57789;53.868;10.728;2023-12-07T02:43:37;0.70;99.90
70368;DHT22;57789;53.868;10.728;2023-12-07T02:46:04;0.70;99.90
70368;DHT22;57789;53.868;10.728;2023-12-07T02:48:30;0.60;99.90
70368;DHT22;57789;53.868;10.728;2023-12-07T02:50:55;0.60;99.90
70368;DHT22;57789;53.868;10.728;2023-12-07T02:53:21;0.60;99.90
70368;DHT22;57789;53.868;10.728;2023-12-07T02:55:47;0.70;99.90
70368;DHT22;57789;53.868;10.728;2023-12-07T02:58:13;0.70;99.90
70368;DHT22;57789;53.868;10.728;2023-12-07T03:00:39;0.60;99.90
70368;DHT22;57789;53.868;10.728;2023-12-07T03:03:04;0.60;99.90
70368;DHT22;57789;53.868;10.728;2023-12-07T03:05:30;0.60;99.90
70368;DHT22;57789;53.868;10.728;2023-12-07T03:07:56;0.60;99.90
70368;DHT22;57789;53.868;10.728;2023-12-07T03:10:22;0.60;99.90
70368;DHT22;57789;53.868;10.728;2023-12-07T03:12:48;0.60;99.90
70368;DHT22;57789;53.868;10.728;2023-12-07T03:15:14;0.60;99.90
70368;DHT22;57789;53.868;10.728;2023-12-07T03:17:40;0.60;99.90
70368;DHT22;57789;53.868;10.728;2023-12-07T03:20:06;0.60;99.90
70368;DHT22;57789;53.868;10.728;2023-12-07T03:22:32;0.50;99.90
70368;DHT22;57789;53.868;10.728;2023-12-07T03:24:58;0.50;99.90
70368;DHT22;57789;53.868;10.728;2023-12-07T03:27:24;0.50;99.90
70368;DHT22;57789;53.868;10.728;2023-12-07T03:29:49;0.50;99.90
70368;DHT22;57789;53.868;10.728;2023-12-07T03:32:16;0.50;99.90
70368;DHT22;57789;53.868;10.728;2023-12-07T03:34:43;0.50;99.90
70368;DHT22;57789;53.868;10.728;2023-12-07T03:37:08;0.50;99.90
70368;DHT22;57789;53.868;10.728;2023-12-07T03:39:34;0.50;99.90
70368;DHT22;57789;53.868;10.728;2023-12-07T03:42:00;0.50;99.90
70368;DHT22;57789;53.868;10.728;2023-12-07T03:44:28;0.50;99.90
70368;DHT22;57789;53.868;10.728;2023-12-07T03:46:55;0.60;99.90
70368;DHT22;57789;53.868;10.728;2023-12-07T03:49:21;0.60;99.90
70368;DHT22;57789;53.868;10.728;2023-12-07T03:51:47;0.60;99.90
70368;DHT22;57789;53.868;10.728;2023-12-07T03:54:13;0.70;99.90
70368;DHT22;57789;53.868;10.728;2023-12-07T03:56:39;0.80;99.90
70368;DHT22;57789;53.868;10.728;2023-12-07T03:59:06;0.80;99.90
70368;DHT22;57789;53.868;10.728;2023-12-07T04:01:32;0.80;99.90
70368;DHT22;57789;53.868;10.728;2023-12-07T04:03:58;0.70;99.90
70368;DHT22;57789;53.868;10.728;2023-12-07T04:06:25;0.70;99.90
70368;DHT22;57789;53.868;10.728;2023-12-07T04:08:51;0.70;99.90
70368;DHT22;57789;53.868;10.728;2023-12-07T04:11:17;0.70;99.90
70368;DHT22;57789;53.868;10.728;2023-12-07T04:13:43;0.70;99.90
70368;DHT22;57789;53.868;10.728;2023-12-07T04:16:09;0.70;99.90
70368;DHT22;57789;53.868;10.728;2023-12-07T04:18:36;0.70;99.90
70368;DHT22;57789;53.868;10.728;2023-12-07T04:21:02;0.60;99.90
70368;DHT22;57789;53.868;10.728;2023-12-07T04:23:28;0.60;99.90
70368;DHT22;57789;53.868;10.728;2023-12-07T04:25:54;0.70;99.90
70368;DHT22;57789;53.868;10.728;2023-12-07T04:28:20;0.70;99.90
70368;DHT22;57789;53.868;10.728;2023-12-07T04:30:46;0.70;99.90
70368;DHT22;57789;53.868;10.728;2023-12-07T04:33:12;0.70;99.90
70368;DHT22;57789;53.868;10.728;2023-12-07T04:35:37;0.70;99.90
70368;DHT22;57789;53.868;10.728;2023-12-07T04:38:03;0.70;99.90
70368;DHT22;57789;53.868;10.728;2023-12-07T04:40:29;0.70;99.90
70368;DHT22;57789;53.868;10.728;2023-12-07T04:42:55;0.80;99.90
70368;DHT22;57789;53.868;10.728;2023-12-07T04:45:21;0.80;99.90
70368;DHT22;57789;53.868;10.728;2023-12-07T04:47:46;0.80;99.90
70368;DHT22;57789;53.868;10.728;2023-12-07T04:50:13;0.90;99.90
70368;DHT22;57789;53.868;10.728;2023-12-07T04:52:39;0.80;99.90
70368;DHT22;57789;53.868;10.728;2023-12-07T04:55:05;0.80;99.90
70368;DHT22;57789;53.868;10.728;2023-12-07T04:57:35;1.00;99.90
70368;DHT22;57789;53.868;10.728;2023-12-07T05:00:03;1.00;99.90
70368;DHT22;57789;53.868;10.728;2023-12-07T05:02:32;0.90;99.90
70368;DHT22;57789;53.868;10.728;2023-12-07T05:04:58;0.80;99.90
70368;DHT22;57789;53.868;10.728;2023-12-07T05:07:24;0.90;99.90
70368;DHT22;57789;53.868;10.728;2023-12-07T05:09:50;0.90;99.90
70368;DHT22;57789;53.868;10.728;2023-12-07T05:12:18;0.90;99.90
70368;DHT22;57789;53.868;10.728;2023-12-07T05:14:44;1.00;99.90
70368;DHT22;57789;53.868;10.728;2023-12-07T05:17:10;0.90;99.90
70368;DHT22;57789;53.868;10.728;2023-12-07T05:19:36;1.00;99.90
70368;DHT22;57789;53.868;10.728;2023-12-07T05:22:01;1.00;99.90
70368;DHT22;57789;53.868;10.728;2023-12-07T05:24:28;1.00;99.90
70368;DHT22;57789;53.868;10.728;2023-12-07T05:26:54;1.00;99.90
70368;DHT22;57789;53.868;10.728;2023-12-07T05:29:19;1.00;99.90
70368;DHT22;57789;53.868;10.728;2023-12-07T05:31:48;1.00;99.90
70368;DHT22;57789;53.868;10.728;2023-12-07T05:34:15;1.00;99.90
70368;DHT22;57789;53.868;10.728;2023-12-07T05:36:40;0.90;99.90
70368;DHT22;57789;53.868;10.728;2023-12-07T05:39:06;0.90;99.90
70368;DHT22;57789;53.868;10.728;2023-12-07T05:41:33;0.90;99.90
70368;DHT22;57789;53.868;10.728;2023-12-07T05:43:59;0.80;99.90
70368;DHT22;57789;53.868;10.728;2023-12-07T05:46:24;0.90;99.90
70368;DHT22;57789;53.868;10.728;2023-12-07T05:48:50;1.00;99.90
70368;DHT22;57789;53.868;10.728;2023-12-07T05:51:17;1.00;99.90
70368;DHT22;57789;53.868;10.728;2023-12-07T05:53:43;0.90;99.90
70368;DHT22;57789;53.868;10.728;2023-12-07T05:56:10;1.00;99.90
70368;DHT22;57789;53.868;10.728;2023-12-07T05:58:42;1.00;99.90
70368;DHT22;57789;53.868;10.728;2023-12-07T06:01:10;1.10;99.90
70368;DHT22;57789;53.868;10.728;2023-12-07T06:03:36;1.10;99.90
70368;DHT22;57789;53.868;10.728;2023-12-07T06:06:04;1.10;99.90
70368;DHT22;57789;53.868;10.728;2023-12-07T06:08:31;1.20;99.90
70368;DHT22;57789;53.868;10.728;2023-12-07T06:10:58;1.20;99.90
70368;DHT22;57789;53.868;10.728;2023-12-07T06:13:24;1.20;99.90
70368;DHT22;57789;53.868;10.728;2023-12-07T06:15:50;1.20;99.90
70368;DHT22;57789;53.868;10.728;2023-12-07T06:18:16;1.10;99.90
70368;DHT22;57789;53.868;10.728;2023-12-07T06:20:42;1.10;99.90
70368;DHT22;57789;53.868;10.728;2023-12-07T06:23:08;1.10;99.90
70368;DHT22;57789;53.868;10.728;2023-12-07T06:25:39;1.10;99.90
70368;DHT22;57789;53.868;10.728;2023-12-07T06:28:05;1.10;99.90
70368;DHT22;57789;53.868;10.728;2023-12-07T06:30:31;1.10;99.90
70368;DHT22;57789;53.868;10.728;2023-12-07T06:32:57;1.00;99.90
70368;DHT22;57789;53.868;10.728;2023-12-07T06:35:23;1.00;99.90
70368;DHT22;57789;53.868;10.728;2023-12-07T06:37:49;1.00;99.90
70368;DHT22;57789;53.868;10.728;2023-12-07T06:40:14;0.90;99.90
70368;DHT22;57789;53.868;10.728;2023-12-07T06:42:40;0.90;99.90
70368;DHT22;57789;53.868;10.728;2023-12-07T06:45:07;0.90;99.90
70368;DHT22;57789;53.868;10.728;2023-12-07T06:47:37;0.90;99.90
70368;DHT22;57789;53.868;10.728;2023-12-07T06:50:05;0.90;99.90
70368;DHT22;57789;53.868;10.728;2023-12-07T06:52:34;0.90;99.90
70368;DHT22;57789;53.868;10.728;2023-12-07T06:55:00;0.90;99.90
70368;DHT22;57789;53.868;10.728;2023-12-07T06:57:26;0.90;99.90
70368;DHT22;57789;53.868;10.728;2023-12-07T06:59:51;0.90;99.90
70368;DHT22;57789;53.868;10.728;2023-12-07T07:02:17;0.90;99.90
70368;DHT22;57789;53.868;10.728;2023-12-07T07:04:43;0.90;99.90
70368;DHT22;57789;53.868;10.728;2023-12-07T07:07:10;0.90;99.90
70368;DHT22;57789;53.868;10.728;2023-12-07T07:09:35;0.90;99.90
70368;DHT22;57789;53.868;10.728;2023-12-07T07:12:01;0.90;99.90
70368;DHT22;57789;53.868;10.728;2023-12-07T07:14:27;1.00;99.90
70368;DHT22;57789;53.868;10.728;2023-12-07T07:16:53;1.00;99.90
70368;DHT22;57789;53.868;10.728;2023-12-07T07:19:19;1.00;99.90
70368;DHT22;57789;53.868;10.728;2023-12-07T07:21:45;1.00;99.90
70368;DHT22;57789;53.868;10.728;2023-12-07T07:24:10;1.00;99.90
70368;DHT22;57789;53.868;10.728;2023-12-07T07:26:36;1.10;99.90
70368;DHT22;57789;53.868;10.728;2023-12-07T07:29:02;1.00;99.90
70368;DHT22;57789;53.868;10.728;2023-12-07T07:31:29;1.10;99.90
70368;DHT22;57789;53.868;10.728;2023-12-07T07:33:55;1.10;99.90
70368;DHT22;57789;53.868;10.728;2023-12-07T07:36:21;1.00;99.90
70368;DHT22;57789;53.868;10.728;2023-12-07T07:38:47;1.00;99.90
70368;DHT22;57789;53.868;10.728;2023-12-07T07:41:14;1.00;99.90
70368;DHT22;57789;53.868;10.728;2023-12-07T07:43:39;1.00;99.90
70368;DHT22;57789;53.868;10.728;2023-12-07T07:46:06;1.10;99.90
70368;DHT22;57789;53.868;10.728;2023-12-07T07:48:32;1.10;99.90
70368;DHT22;57789;53.868;10.728;2023-12-07T07:50:58;1.10;99.90
70368;DHT22;57789;53.868;10.728;2023-12-07T07:53:24;1.20;99.90
70368;DHT22;57789;53.868;10.728;2023-12-07T07:55:50;1.20;99.90
70368;DHT22;57789;53.868;10.728;2023-12-07T07:58:16;1.20;99.90
70368;DHT22;57789;53.868;10.728;2023-12-07T08:00:41;1.00;99.90
70368;DHT22;57789;53.868;10.728;2023-12-07T08:03:08;1.00;99.90
70368;DHT22;57789;53.868;10.728;2023-12-07T08:05:34;1.00;99.90
70368;DHT22;57789;53.868;10.728;2023-12-07T08:08:00;1.00;99.90
70368;DHT22;57789;53.868;10.728;2023-12-07T08:10:26;1.10;99.90
70368;DHT22;57789;53.868;10.728;2023-12-07T08:12:52;1.20;99.90
70368;DHT22;57789;53.868;10.728;2023-12-07T10:31:41;2.20;99.90
70368;DHT22;57789;53.868;10.728;2023-12-07T10:34:10;2.20;99.90
70368;DHT22;57789;53.868;10.728;2023-12-07T10:36:36;2.20;99.90
70368;DHT22;57789;53.868;10.728;2023-12-07T10:39:02;2.20;99.90
70368;DHT22;57789;53.868;10.728;2023-12-07T10:41:33;2.20;99.90
70368;DHT22;57789;53.868;10.728;2023-12-07T10:44:01;2.30;99.90
70368;DHT22;57789;53.868;10.728;2023-12-07T10:46:29;2.20;99.90
70368;DHT22;57789;53.868;10.728;2023-12-07T10:49:03;2.20;99.90
70368;DHT22;57789;53.868;10.728;2023-12-07T10:51:42;2.30;99.90
70368;DHT22;57789;53.868;10.728;2023-12-07T10:54:15;2.20;99.90
70368;DHT22;57789;53.868;10.728;2023-12-07T10:56:46;2.20;99.90
70368;DHT22;57789;53.868;10.728;2023-12-07T10:59:13;2.20;99.90
70368;DHT22;57789;53.868;10.728;2023-12-07T11:01:42;2.20;99.90
70368;DHT22;57789;53.868;10.728;2023-12-07T11:04:13;2.20;99.90
70368;DHT22;57789;53.868;10.728;2023-12-07T11:06:41;2.10;99.90
70368;DHT22;57789;53.868;10.728;2023-12-07T11:09:10;2.10;99.90
70368;DHT22;57789;53.868;10.728;2023-12-07T11:12:13;2.10;99.90
70368;DHT22;57789;53.868;10.728;2023-12-07T11:14:38;2.10;99.90
70368;DHT22;57789;53.868;10.728;2023-12-07T11:17:04;2.10;99.90
70368;DHT22;57789;53.868;10.728;2023-12-07T11:22:05;2.20;99.90
70368;DHT22;57789;53.868;10.728;2023-12-07T11:24:31;2.10;99.90
70368;DHT22;57789;53.868;10.728;2023-12-07T11:26:58;2.20;99.90
70368;DHT22;57789;53.868;10.728;2023-12-07T11:29:24;2.30;99.90
70368;DHT22;57789;53.868;10.728;2023-12-07T11:31:51;2.50;99.90
70368;DHT22;57789;53.868;10.728;2023-12-07T11:34:36;2.50;99.90
70368;DHT22;57789;53.868;10.728;2023-12-07T11:37:03;2.30;99.90
70368;DHT22;57789;53.868;10.728;2023-12-07T11:39:30;2.10;99.90
70368;DHT22;57789;53.868;10.728;2023-12-07T11:42:10;2.10;99.90
70368;DHT22;57789;53.868;10.728;2023-12-07T11:44:41;2.20;99.90
70368;DHT22;57789;53.868;10.728;2023-12-07T11:47:07;2.20;99.90
70368;DHT22;57789;53.868;10.728;2023-12-07T11:49:34;2.50;99.90
70368;DHT22;57789;53.868;10.728;2023-12-07T11:52:01;2.70;99.90
70368;DHT22;57789;53.868;10.728;2023-12-07T11:54:38;2.90;99.90
70368;DHT22;57789;53.868;10.728;2023-12-07T11:57:05;3.00;99.90
70368;DHT22;57789;53.868;10.728;2023-12-07T11:59:31;3.00;99.90
70368;DHT22;57789;53.868;10.728;2023-12-07T12:01:59;2.90;99.90
70368;DHT22;57789;53.868;10.728;2023-12-07T12:04:25;2.70;99.90
70368;DHT22;57789;53.868;10.728;2023-12-07T12:06:53;2.60;99.90
70368;DHT22;57789;53.868;10.728;2023-12-07T12:09:20;2.50;99.90
70368;DHT22;57789;53.868;10.728;2023-12-07T12:11:46;2.60;99.90
70368;DHT22;57789;53.868;10.728;2023-12-07T12:14:19;2.60;99.90
70368;DHT22;57789;53.868;10.728;2023-12-07T12:16:48;2.50;99.90
70368;DHT22;57789;53.868;10.728;2023-12-07T12:19:15;2.40;99.90
70368;DHT22;57789;53.868;10.728;2023-12-07T12:21:43;2.30;99.90
70368;DHT22;57789;53.868;10.728;2023-12-07T12:24:12;2.30;99.90
70368;DHT22;57789;53.868;10.728;2023-12-07T12:26:49;2.20;99.90
70368;DHT22;57789;53.868;10.728;2023-12-07T12:29:15;2.20;99.90
70368;DHT22;57789;53.868;10.728;2023-12-07T12:31:41;2.30;99.90
70368;DHT22;57789;53.868;10.728;2023-12-07T12:34:07;2.30;99.90
70368;DHT22;57789;53.868;10.728;2023-12-07T12:36:37;2.40;99.90
70368;DHT22;57789;53.868;10.728;2023-12-07T12:39:05;2.40;99.90
70368;DHT22;57789;53.868;10.728;2023-12-07T12:41:34;2.40;99.90
70368;DHT22;57789;53.868;10.728;2023-12-07T12:44:00;2.30;99.90
70368;DHT22;57789;53.868;10.728;2023-12-07T12:46:25;2.40;99.90
70368;DHT22;57789;53.868;10.728;2023-12-07T12:48:56;2.50;99.90
70368;DHT22;57789;53.868;10.728;2023-12-07T12:51:32;2.60;99.90
70368;DHT22;57789;53.868;10.728;2023-12-07T12:53:59;2.50;99.90
70368;DHT22;57789;53.868;10.728;2023-12-07T12:56:27;2.60;99.90
70368;DHT22;57789;53.868;10.728;2023-12-07T12:58:54;2.60;99.90
70368;DHT22;57789;53.868;10.728;2023-12-07T13:01:23;2.40;99.90
70368;DHT22;57789;53.868;10.728;2023-12-07T13:03:49;2.40;99.90
70368;DHT22;57789;53.868;10.728;2023-12-07T13:06:16;2.30;99.90
70368;DHT22;57789;53.868;10.728;2023-12-07T13:08:46;2.30;99.90
70368;DHT22;57789;53.868;10.728;2023-12-07T13:11:19;2.30;99.90
70368;DHT22;57789;53.868;10.728;2023-12-07T13:13:46;2.40;99.90
70368;DHT22;57789;53.868;10.728;2023-12-07T13:16:18;2.50;99.90
70368;DHT22;57789;53.868;10.728;2023-12-07T13:18:46;2.50;99.90
70368;DHT22;57789;53.868;10.728;2023-12-07T13:21:11;2.40;99.90
70368;DHT22;57789;53.868;10.728;2023-12-07T13:23:39;2.40;99.90
70368;DHT22;57789;53.868;10.728;2023-12-07T13:26:05;2.40;99.90
70368;DHT22;57789;53.868;10.728;2023-12-07T13:28:32;2.50;99.90
70368;DHT22;57789;53.868;10.728;2023-12-07T13:31:00;2.60;99.90
70368;DHT22;57789;53.868;10.728;2023-12-07T13:33:26;2.70;99.90
70368;DHT22;57789;53.868;10.728;2023-12-07T13:35:52;2.60;99.90
70368;DHT22;57789;53.868;10.728;2023-12-07T13:38:20;2.50;99.90
70368;DHT22;57789;53.868;10.728;2023-12-07T13:40:47;2.50;99.90
70368;DHT22;57789;53.868;10.728;2023-12-07T13:43:14;2.70;99.90
70368;DHT22;57789;53.868;10.728;2023-12-07T13:45:48;2.60;99.90
70368;DHT22;57789;53.868;10.728;2023-12-07T13:48:34;2.50;99.90
70368;DHT22;57789;53.868;10.728;2023-12-07T13:51:00;2.40;99.90
70368;DHT22;57789;53.868;10.728;2023-12-07T13:53:28;2.30;99.90
70368;DHT22;57789;53.868;10.728;2023-12-07T13:55:53;2.30;99.90
70368;DHT22;57789;53.868;10.728;2023-12-07T13:58:22;2.30;99.90
70368;DHT22;57789;53.868;10.728;2023-12-07T14:00:48;2.30;99.90
70368;DHT22;57789;53.868;10.728;2023-12-07T14:03:14;2.20;99.90
70368;DHT22;57789;53.868;10.728;2023-12-07T14:05:40;2.20;99.90
70368;DHT22;57789;53.868;10.728;2023-12-07T14:08:06;2.30;99.90
70368;DHT22;57789;53.868;10.728;2023-12-07T14:10:33;2.30;99.90
70368;DHT22;57789;53.868;10.728;2023-12-07T14:13:01;2.20;99.90
70368;DHT22;57789;53.868;10.728;2023-12-07T14:15:30;2.20;99.90
70368;DHT22;57789;53.868;10.728;2023-12-07T14:18:00;2.10;99.90
70368;DHT22;57789;53.868;10.728;2023-12-07T14:20:25;2.10;99.90
70368;DHT22;57789;53.868;10.728;2023-12-07T14:22:54;2.10;99.90
70368;DHT22;57789;53.868;10.728;2023-12-07T14:25:21;2.10;99.90
70368;DHT22;57789;53.868;10.728;2023-12-07T14:27:48;2.10;99.90
70368;DHT22;57789;53.868;10.728;2023-12-07T14:30:14;2.00;99.90
70368;DHT22;57789;53.868;10.728;2023-12-07T14:32:42;2.00;99.90
70368;DHT22;57789;53.868;10.728;2023-12-07T14:35:18;2.00;99.90
70368;DHT22;57789;53.868;10.728;2023-12-07T14:37:43;2.10;99.90
70368;DHT22;57789;53.868;10.728;2023-12-07T14:40:15;2.10;99.90
70368;DHT22;57789;53.868;10.728;2023-12-07T14:42:46;2.10;99.90
70368;DHT22;57789;53.868;10.728;2023-12-07T14:45:22;2.00;99.90
70368;DHT22;57789;53.868;10.728;2023-12-07T14:48:09;1.90;99.90
70368;DHT22;57789;53.868;10.728;2023-12-07T14:50:38;1.90;99.90
70368;DHT22;57789;53.868;10.728;2023-12-07T14:53:04;1.90;99.90
70368;DHT22;57789;53.868;10.728;2023-12-07T14:55:30;2.00;99.90
70368;DHT22;57789;53.868;10.728;2023-12-07T14:57:56;2.00;99.90
70368;DHT22;57789;53.868;10.728;2023-12-07T15:00:22;1.90;99.90
70368;DHT22;57789;53.868;10.728;2023-12-07T15:02:49;1.90;99.90
70368;DHT22;57789;53.868;10.728;2023-12-07T15:05:15;2.00;99.90
70368;DHT22;57789;53.868;10.728;2023-12-07T15:07:42;2.10;99.90
70368;DHT22;57789;53.868;10.728;2023-12-07T15:10:08;2.10;99.90
70368;DHT22;57789;53.868;10.728;2023-12-07T15:12:35;2.00;99.90
70368;DHT22;57789;53.868;10.728;2023-12-07T15:15:01;2.00;99.90
70368;DHT22;57789;53.868;10.728;2023-12-07T15:17:27;2.00;99.90
70368;DHT22;57789;53.868;10.728;2023-12-07T15:19:53;2.00;99.90
70368;DHT22;57789;53.868;10.728;2023-12-07T15:22:19;1.90;99.90
70368;DHT22;57789;53.868;10.728;2023-12-07T15:24:45;1.90;99.90
70368;DHT22;57789;53.868;10.728;2023-12-07T15:27:11;1.90;99.90
70368;DHT22;57789;53.868;10.728;2023-12-07T15:29:38;1.90;99.90
70368;DHT22;57789;53.868;10.728;2023-12-07T15:32:05;1.80;99.90
70368;DHT22;57789;53.868;10.728;2023-12-07T15:34:31;1.70;99.90
70368;DHT22;57789;53.868;10.728;2023-12-07T15:36:58;1.70;99.90
70368;DHT22;57789;53.868;10.728;2023-12-07T15:39:23;1.70;99.90
70368;DHT22;57789;53.868;10.728;2023-12-07T15:41:49;1.50;99.90
70368;DHT22;57789;53.868;10.728;2023-12-07T15:44:17;1.50;99.90
70368;DHT22;57789;53.868;10.728;2023-12-07T15:46:43;1.40;99.90
70368;DHT22;57789;53.868;10.728;2023-12-07T15:49:09;1.40;99.90
70368;DHT22;57789;53.868;10.728;2023-12-07T15:51:35;1.40;99.90
70368;DHT22;57789;53.868;10.728;2023-12-07T15:54:02;1.30;99.90
70368;DHT22;57789;53.868;10.728;2023-12-07T15:56:29;1.30;99.90
70368;DHT22;57789;53.868;10.728;2023-12-07T15:58:55;1.20;99.90
70368;DHT22;57789;53.868;10.728;2023-12-07T16:01:26;1.20;99.90
70368;DHT22;57789;53.868;10.728;2023-12-07T16:03:52;1.20;99.90
70368;DHT22;57789;53.868;10.728;2023-12-07T16:06:18;1.10;99.90
70368;DHT22;57789;53.868;10.728;2023-12-07T16:08:43;1.10;99.90
70368;DHT22;57789;53.868;10.728;2023-12-07T16:11:09;1.10;99.90
70368;DHT22;57789;53.868;10.728;2023-12-07T16:13:35;1.20;99.90
70368;DHT22;57789;53.868;10.728;2023-12-07T16:16:02;1.20;99.90
70368;DHT22;57789;53.868;10.728;2023-12-07T16:18:28;1.20;99.90
70368;DHT22;57789;53.868;10.728;2023-12-07T16:20:54;1.10;99.90
70368;DHT22;57789;53.868;10.728;2023-12-07T16:23:20;1.20;99.90
70368;DHT22;57789;53.868;10.728;2023-12-07T16:25:46;1.20;99.90
70368;DHT22;57789;53.868;10.728;2023-12-07T16:28:12;1.20;99.90
70368;DHT22;57789;53.868;10.728;2023-12-07T16:30:39;1.20;99.90
70368;DHT22;57789;53.868;10.728;2023-12-07T16:33:05;1.20;99.90
70368;DHT22;57789;53.868;10.728;2023-12-07T16:35:31;1.20;99.90
70368;DHT22;57789;53.868;10.728;2023-12-07T16:37:58;1.20;99.90
70368;DHT22;57789;53.868;10.728;2023-12-07T16:40:24;1.30;99.90
70368;DHT22;57789;53.868;10.728;2023-12-07T16:42:50;1.30;99.90
70368;DHT22;57789;53.868;10.728;2023-12-07T16:45:17;1.30;99.90
70368;DHT22;57789;53.868;10.728;2023-12-07T16:47:44;1.20;99.90
70368;DHT22;57789;53.868;10.728;2023-12-07T16:50:10;1.30;99.90
70368;DHT22;57789;53.868;10.728;2023-12-07T16:52:38;1.30;99.90
70368;DHT22;57789;53.868;10.728;2023-12-07T16:55:04;1.30;99.90
70368;DHT22;57789;53.868;10.728;2023-12-07T16:57:31;1.30;99.90
70368;DHT22;57789;53.868;10.728;2023-12-07T16:59:57;1.30;99.90
70368;DHT22;57789;53.868;10.728;2023-12-07T17:02:24;1.30;99.90
70368;DHT22;57789;53.868;10.728;2023-12-07T17:04:52;1.30;99.90
70368;DHT22;57789;53.868;10.728;2023-12-07T17:07:18;1.40;99.90
70368;DHT22;57789;53.868;10.728;2023-12-07T17:09:44;1.30;99.90
70368;DHT22;57789;53.868;10.728;2023-12-07T17:12:10;1.40;99.90
70368;DHT22;57789;53.868;10.728;2023-12-07T17:14:36;1.30;99.90
70368;DHT22;57789;53.868;10.728;2023-12-07T17:17:03;1.30;99.90
70368;DHT22;57789;53.868;10.728;2023-12-07T17:19:29;1.30;99.90
70368;DHT22;57789;53.868;10.728;2023-12-07T17:21:55;1.30;99.90
70368;DHT22;57789;53.868;10.728;2023-12-07T17:24:21;1.40;99.90
70368;DHT22;57789;53.868;10.728;2023-12-07T17:26:47;1.40;99.90
70368;DHT22;57789;53.868;10.728;2023-12-07T17:29:13;1.50;99.90
70368;DHT22;57789;53.868;10.728;2023-12-07T17:31:39;1.50;99.90
70368;DHT22;57789;53.868;10.728;2023-12-07T17:34:05;1.50;99.90
70368;DHT22;57789;53.868;10.728;2023-12-07T17:36:31;1.50;99.90
70368;DHT22;57789;53.868;10.728;2023-12-07T17:38:56;1.50;99.90
70368;DHT22;57789;53.868;10.728;2023-12-07T17:41:23;1.60;99.90
70368;DHT22;57789;53.868;10.728;2023-12-07T17:43:48;1.70;99.90
70368;DHT22;57789;53.868;10.728;2023-12-07T17:46:16;1.60;99.90
70368;DHT22;57789;53.868;10.728;2023-12-07T17:48:42;1.60;99.90